Time,TemperatureF,DewpointF,PressureIn,WindDirection,WindDirectionDegrees,WindSpeedMPH,WindSpeedGustMPH,Humidity,HourlyPrecipIn,Conditions,Clouds,dailyrainin,SolarRadiationWatts/m^2,SoftwareType,DateUTC
2013-07-04 00:02:00,66.7,61.7,29.82,West,276,1.2,0.0,84,0.00,CLR,,0.00,0.0,WeatherDisplay:10.37,2013-07-04 07:02:00,
2013-07-04 00:07:00,66.7,61.7,29.82,West,276,1.2,1.2,84,0.00,CLR,,0.00,0.0,WeatherDisplay:10.37,2013-07-04 07:07:00,
2013-07-04 00:12:00,66.7,61.7,29.82,West,275,3.5,3.5,84,0.00,CLR,,0.00,0.0,WeatherDisplay:10.37,2013-07-04 07:12:00,
2013-07-04 00:17:00,66.7,61.7,29.82,West,275,1.2,0.0,84,0.00,CLR,,0.00,0.0,WeatherDisplay:10.37,2013-07-04 07:17:00,
2013-07-04 00:22:00,66.7,61.7,29.82,West,276,1.0,1.0,84,0.00,CLR,,0.00,0.0,WeatherDisplay:10.37,2013-07-04 07:22:00,
2013-07-04 00:27:00,66.7,61.7,29.82,West,275,1.0,1.0,84,0.00,CLR,,0.00,0.0,WeatherDisplay:10.37,2013-07-04 07:27:00,
2013-07-04 00:32:00,66.8,62.1,29.82,West,276,1.2,1.2,85,0.00,CLR,,0.00,0.0,WeatherDisplay:10.37,2013-07-04 07:32:00,
2013-07-04 00:37:00,66.8,62.1,29.82,West,275,2.3,2.3,85,0.00,CLR,,0.00,0.0,WeatherDisplay:10.37,2013-07-04 07:37:00,
2013-07-04 00:42:00,66.8,62.1,29.82,West,276,1.2,1.2,85,0.00,CLR,,0.00,0.0,WeatherDisplay:10.37,2013-07-04 07:42:00,
2013-07-04 00:47:00,66.8,62.1,29.82,West,275,2.0,2.0,85,0.00,CLR,,0.00,0.0,WeatherDisplay:10.37,2013-07-04 07:47:00,
2013-07-04 00:52:00,66.7,62.0,29.82,West,276,1.2,1.2,85,0.00,CLR,,0.00,0.0,WeatherDisplay:10.37,2013-07-04 07:52:00,
2013-07-04 00:57:00,66.7,62.0,29.82,West,276,0.0,0.0,85,0.00,CLR,,0.00,0.0,WeatherDisplay:10.37,2013-07-04 07:57:00,
2013-07-04 01:02:00,66.7,62.0,29.82,West,275,2.3,2.3,85,0.00,CLR,,0.00,0.0,WeatherDisplay:10.37,2013-07-04 08:02:00,
2013-07-04 01:07:00,66.6,61.9,29.82,West,275,2.3,2.3,85,0.00,CLR,,0.00,0.0,WeatherDisplay:10.37,2013-07-04 08:07:00,
2013-07-04 01:12:00,66.6,61.9,29.82,West,275,2.3,2.3,85,0.00,CLR,,0.00,0.0,WeatherDisplay:10.37,2013-07-04 08:12:00,
2013-07-04 01:17:00,66.6,61.9,29.82,West,275,2.0,2.0,85,0.00,CLR,,0.00,0.0,WeatherDisplay:10.37,2013-07-04 08:17:00,
2013-07-04 01:18:00,66.6,61.9,29.82,West,275,2.0,2.0,85,0.00,CLR,,0.00,0.0,WeatherDisplay:10.37,2013-07-04 08:18:00,
2013-07-04 01:23:00,66.6,61.9,29.82,West,276,4.0,4.0,85,0.00,CLR,,0.00,0.0,WeatherDisplay:10.37,2013-07-04 08:23:00,
2013-07-04 01:28:00,66.5,62.2,29.82,West,276,3.5,3.5,86,0.00,CLR,,0.00,0.0,WeatherDisplay:10.37,2013-07-04 08:28:00,
2013-07-04 01:33:00,66.5,62.2,29.82,West,276,3.5,3.5,86,0.00,CLR,,0.00,0.0,WeatherDisplay:10.37,2013-07-04 08:33:00,
2013-07-04 01:38:00,66.4,62.1,29.82,West,276,2.3,2.3,86,0.00,CLR,,0.00,0.0,WeatherDisplay:10.37,2013-07-04 08:38:00,
2013-07-04 01:43:00,66.3,62.0,29.82,West,275,1.2,1.2,86,0.00,CLR,,0.00,0.0,WeatherDisplay:10.37,2013-07-04 08:43:00,
2013-07-04 01:48:00,66.3,62.0,29.82,West,275,2.3,2.3,86,0.00,CLR,,0.00,0.0,WeatherDisplay:10.37,2013-07-04 08:48:00,
2013-07-04 01:53:00,66.3,62.0,29.82,West,275,3.5,3.5,86,0.00,CLR,,0.00,0.0,WeatherDisplay:10.37,2013-07-04 08:53:00,
2013-07-04 01:58:00,66.2,61.9,29.81,West,275,2.3,2.3,86,0.00,CLR,,0.00,0.0,WeatherDisplay:10.37,2013-07-04 08:58:00,
2013-07-04 02:03:00,66.2,61.9,29.81,West,275,3.5,3.5,86,0.00,CLR,,0.00,0.0,WeatherDisplay:10.37,2013-07-04 09:03:00,
2013-07-04 02:08:00,66.2,61.9,29.81,West,275,2.3,2.3,86,0.00,CLR,,0.00,0.0,WeatherDisplay:10.37,2013-07-04 09:08:00,
2013-07-04 02:13:00,66.1,62.1,29.81,West,275,1.2,1.2,87,0.00,CLR,,0.00,0.0,WeatherDisplay:10.37,2013-07-04 09:13:00,
2013-07-04 02:18:00,66.1,62.1,29.81,West,275,1.2,1.2,87,0.00,CLR,,0.00,0.0,WeatherDisplay:10.37,2013-07-04 09:18:00,
2013-07-04 02:23:00,66.0,62.0,29.81,West,275,0.0,0.0,87,0.00,CLR,,0.00,0.0,WeatherDisplay:10.37,2013-07-04 09:23:00,
2013-07-04 02:28:00,65.9,61.9,29.81,West,275,1.2,0.0,87,0.00,CLR,,0.00,0.0,WeatherDisplay:10.37,2013-07-04 09:28:00,
2013-07-04 02:33:00,65.9,61.9,29.81,West,275,0.0,0.0,87,0.00,CLR,,0.00,0.0,WeatherDisplay:10.37,2013-07-04 09:33:00,
2013-07-04 02:38:00,65.9,61.9,29.81,West,275,1.2,0.0,87,0.00,CLR,,0.00,0.0,WeatherDisplay:10.37,2013-07-04 09:38:00,
2013-07-04 02:43:00,65.9,61.9,29.81,West,275,1.2,1.2,87,0.00,CLR,,0.00,0.0,WeatherDisplay:10.37,2013-07-04 09:43:00,
2013-07-04 02:48:00,65.9,61.9,29.80,West,275,3.5,3.5,87,0.00,CLR,,0.00,0.0,WeatherDisplay:10.37,2013-07-04 09:48:00,
2013-07-04 02:53:00,65.8,61.8,29.80,West,275,3.5,3.5,87,0.00,CLR,,0.00,0.0,WeatherDisplay:10.37,2013-07-04 09:53:00,
2013-07-04 02:58:00,65.8,61.8,29.80,West,275,3.5,3.5,87,0.00,CLR,,0.00,0.0,WeatherDisplay:10.37,2013-07-04 09:58:00,
2013-07-04 03:03:00,65.9,62.2,29.80,West,275,3.5,3.5,88,0.00,CLR,,0.00,0.0,WeatherDisplay:10.37,2013-07-04 10:03:00,
2013-07-04 03:08:00,65.9,61.9,29.80,West,275,4.0,4.0,87,0.00,CLR,,0.00,0.0,WeatherDisplay:10.37,2013-07-04 10:08:00,
2013-07-04 03:13:00,65.8,62.1,29.79,West,275,3.5,3.5,88,0.00,CLR,,0.00,0.0,WeatherDisplay:10.37,2013-07-04 10:13:00,
2013-07-04 03:18:00,65.8,62.1,29.79,West,274,4.0,4.0,88,0.00,CLR,,0.00,0.0,WeatherDisplay:10.37,2013-07-04 10:18:00,
2013-07-04 03:23:00,65.8,62.1,29.79,West,269,4.0,4.0,88,0.00,CLR,,0.00,0.0,WeatherDisplay:10.37,2013-07-04 10:23:00,
2013-07-04 03:28:00,65.8,61.8,29.79,West,267,3.5,3.5,87,0.00,CLR,,0.00,0.0,WeatherDisplay:10.37,2013-07-04 10:28:00,
2013-07-04 03:33:00,65.9,62.2,29.79,West,267,1.2,1.2,88,0.00,CLR,,0.00,0.0,WeatherDisplay:10.37,2013-07-04 10:33:00,
2013-07-04 03:38:00,65.8,61.8,29.79,SSE,151,3.5,3.5,87,0.00,CLR,,0.00,0.0,WeatherDisplay:10.37,2013-07-04 10:38:00,
2013-07-04 03:43:00,65.8,62.1,29.79,SSE,151,3.5,3.5,88,0.00,CLR,,0.00,0.0,WeatherDisplay:10.37,2013-07-04 10:43:00,
2013-07-04 03:48:00,65.7,62.0,29.79,SSE,151,2.3,2.3,88,0.00,CLR,,0.00,0.0,WeatherDisplay:10.37,2013-07-04 10:48:00,
2013-07-04 03:53:00,65.7,62.0,29.79,SSE,153,4.0,4.0,88,0.00,CLR,,0.00,0.0,WeatherDisplay:10.37,2013-07-04 10:53:00,
2013-07-04 03:58:00,65.6,61.9,29.78,SSE,153,1.2,1.2,88,0.00,CLR,,0.00,0.0,WeatherDisplay:10.37,2013-07-04 10:58:00,
2013-07-04 04:03:00,65.6,61.9,29.78,SSE,153,1.2,0.0,88,0.00,CLR,,0.00,0.0,WeatherDisplay:10.37,2013-07-04 11:03:00,
2013-07-04 04:08:00,65.5,61.9,29.78,SSE,153,3.5,3.5,88,0.00,CLR,,0.00,0.0,WeatherDisplay:10.37,2013-07-04 11:08:00,
2013-07-04 04:13:00,65.5,61.9,29.78,SSE,153,1.2,1.2,88,0.00,CLR,,0.00,0.0,WeatherDisplay:10.37,2013-07-04 11:13:00,
2013-07-04 04:18:00,65.5,62.2,29.78,SSE,153,2.3,2.3,89,0.00,CLR,,0.00,0.0,WeatherDisplay:10.37,2013-07-04 11:18:00,
2013-07-04 04:23:00,65.5,61.9,29.78,SSE,153,3.5,3.5,88,0.00,CLR,,0.00,0.0,WeatherDisplay:10.37,2013-07-04 11:23:00,
2013-07-04 04:28:00,65.5,61.9,29.78,SSE,152,3.0,3.0,88,0.00,CLR,,0.00,0.0,WeatherDisplay:10.37,2013-07-04 11:28:00,
2013-07-04 04:33:00,65.5,61.9,29.78,SSE,147,3.5,3.5,88,0.00,CLR,,0.00,0.0,WeatherDisplay:10.37,2013-07-04 11:33:00,
2013-07-04 04:38:00,65.4,61.8,29.78,SE,146,3.0,3.0,88,0.00,CLR,,0.00,0.0,WeatherDisplay:10.37,2013-07-04 11:38:00,
2013-07-04 04:43:00,65.4,61.8,29.78,SE,146,3.5,3.5,88,0.00,CLR,,0.00,0.0,WeatherDisplay:10.37,2013-07-04 11:43:00,
2013-07-04 04:48:00,65.3,61.7,29.79,SE,146,3.5,3.5,88,0.00,CLR,,0.00,0.0,WeatherDisplay:10.37,2013-07-04 11:48:00,
2013-07-04 04:53:00,65.3,62.0,29.79,SE,146,1.2,1.2,89,0.00,CLR,,0.00,0.0,WeatherDisplay:10.37,2013-07-04 11:53:00,
2013-07-04 04:58:00,65.3,62.0,29.79,SE,146,1.2,1.2,89,0.00,CLR,,0.00,0.0,WeatherDisplay:10.37,2013-07-04 11:58:00,
2013-07-04 05:03:00,65.3,62.0,29.79,SE,146,0.0,0.0,89,0.00,CLR,,0.00,0.0,WeatherDisplay:10.37,2013-07-04 12:03:00,
2013-07-04 05:08:00,65.3,62.0,29.79,SE,146,3.0,3.0,89,0.00,CLR,,0.00,0.0,WeatherDisplay:10.37,2013-07-04 12:08:00,
2013-07-04 05:13:00,65.2,61.9,29.79,SE,146,1.2,1.2,89,0.00,CLR,,0.00,0.0,WeatherDisplay:10.37,2013-07-04 12:13:00,
2013-07-04 05:18:00,65.3,62.0,29.79,SE,146,2.0,2.0,89,0.00,CLR,,0.00,0.0,WeatherDisplay:10.37,2013-07-04 12:18:00,
2013-07-04 05:23:00,65.3,62.0,29.79,SE,146,0.0,0.0,89,0.00,CLR,,0.00,0.0,WeatherDisplay:10.37,2013-07-04 12:23:00,
2013-07-04 05:28:00,65.4,62.1,29.79,SE,146,2.3,2.3,89,0.00,CLR,,0.00,0.0,WeatherDisplay:10.37,2013-07-04 12:28:00,
2013-07-04 05:33:00,65.4,62.1,29.79,SE,146,2.3,2.3,89,0.00,CLR,,0.00,0.0,WeatherDisplay:10.37,2013-07-04 12:33:00,
2013-07-04 05:34:00,65.4,62.1,29.79,SE,146,1.2,1.2,89,0.00,CLR,,0.00,0.0,WeatherDisplay:10.37,2013-07-04 12:34:00,
2013-07-04 05:39:00,65.4,62.1,29.79,SE,146,0.0,0.0,89,0.00,CLR,,0.00,0.0,WeatherDisplay:10.37,2013-07-04 12:39:00,
2013-07-04 05:44:00,65.4,61.8,29.79,SE,146,3.5,3.5,88,0.00,CLR,,0.00,0.0,WeatherDisplay:10.37,2013-07-04 12:44:00,
2013-07-04 05:49:00,65.5,61.9,29.79,SE,146,3.5,3.5,88,0.00,CLR,,0.00,0.0,WeatherDisplay:10.37,2013-07-04 12:49:00,
2013-07-04 05:54:00,65.5,61.9,29.79,SE,146,2.3,2.3,88,0.00,CLR,,0.00,0.0,WeatherDisplay:10.37,2013-07-04 12:54:00,
2013-07-04 05:59:00,65.6,61.9,29.79,SE,146,1.2,1.2,88,0.00,CLR,,0.00,0.0,WeatherDisplay:10.37,2013-07-04 12:59:00,
2013-07-04 06:04:00,65.6,61.9,29.79,SE,146,2.3,2.3,88,0.00,BKN,,0.00,5.0,WeatherDisplay:10.37,2013-07-04 13:04:00,
2013-07-04 06:09:00,65.5,61.9,29.79,SE,146,1.0,1.0,88,0.00,BKN,,0.00,9.0,WeatherDisplay:10.37,2013-07-04 13:09:00,
2013-07-04 06:14:00,65.6,61.9,29.79,SE,146,1.0,1.0,88,0.00,BKN,,0.00,12.0,WeatherDisplay:10.37,2013-07-04 13:14:00,
2013-07-04 06:19:00,65.6,61.9,29.79,SE,146,3.5,3.5,88,0.00,BKN,,0.00,16.0,WeatherDisplay:10.37,2013-07-04 13:19:00,
2013-07-04 06:24:00,65.6,61.6,29.79,SE,146,1.2,0.0,87,0.00,BKN,,0.00,18.0,WeatherDisplay:10.37,2013-07-04 13:24:00,
2013-07-04 06:29:00,65.6,61.9,29.79,SE,146,1.2,0.0,88,0.00,BKN,,0.00,18.0,WeatherDisplay:10.37,2013-07-04 13:29:00,
2013-07-04 06:34:00,65.6,61.6,29.79,SE,146,3.5,3.5,87,0.00,BKN,,0.00,18.0,WeatherDisplay:10.37,2013-07-04 13:34:00,
2013-07-04 06:39:00,65.6,61.6,29.79,SSE,151,4.6,4.6,87,0.00,BKN,,0.00,14.0,WeatherDisplay:10.37,2013-07-04 13:39:00,
2013-07-04 06:44:00,65.6,61.6,29.80,SSE,154,4.6,4.6,87,0.00,BKN,,0.00,23.0,WeatherDisplay:10.37,2013-07-04 13:44:00,
2013-07-04 06:49:00,65.6,61.6,29.80,SSE,155,3.5,3.5,87,0.00,BKN,,0.00,23.0,WeatherDisplay:10.37,2013-07-04 13:49:00,
2013-07-04 06:54:00,65.6,61.6,29.80,SSE,151,3.5,3.5,87,0.00,BKN,,0.00,35.0,WeatherDisplay:10.37,2013-07-04 13:54:00,
2013-07-04 06:59:00,65.7,61.7,29.80,SSE,151,3.0,3.0,87,0.00,BKN,,0.00,58.0,WeatherDisplay:10.37,2013-07-04 13:59:00,
2013-07-04 07:04:00,65.8,61.8,29.80,SSE,151,3.5,3.5,87,0.00,BKN,,0.00,62.0,WeatherDisplay:10.37,2013-07-04 14:04:00,
2013-07-04 07:09:00,65.8,61.8,29.80,SSE,150,3.5,3.5,87,0.00,BKN,,0.00,74.0,WeatherDisplay:10.37,2013-07-04 14:09:00,
2013-07-04 07:14:00,65.8,61.8,29.80,SSE,148,3.5,3.5,87,0.00,BKN,,0.00,88.0,WeatherDisplay:10.37,2013-07-04 14:14:00,
2013-07-04 07:19:00,65.8,61.8,29.80,SSE,148,2.3,2.3,87,0.00,BKN,,0.00,91.0,WeatherDisplay:10.37,2013-07-04 14:19:00,
2013-07-04 07:24:00,65.9,61.6,29.81,SSE,148,4.0,4.0,86,0.00,BKN,,0.00,95.0,WeatherDisplay:10.37,2013-07-04 14:24:00,
2013-07-04 07:29:00,65.9,61.9,29.80,SSE,148,3.5,3.5,87,0.00,BKN,,0.00,95.0,WeatherDisplay:10.37,2013-07-04 14:29:00,
2013-07-04 07:34:00,65.9,61.6,29.81,East,98,4.0,4.0,86,0.00,BKN,,0.00,91.0,WeatherDisplay:10.37,2013-07-04 14:34:00,
2013-07-04 07:39:00,65.8,61.5,29.81,East,97,1.2,1.2,86,0.00,BKN,,0.00,100.0,WeatherDisplay:10.37,2013-07-04 14:39:00,
2013-07-04 07:44:00,65.9,61.9,29.81,East,97,1.2,1.2,87,0.00,BKN,,0.00,105.0,WeatherDisplay:10.37,2013-07-04 14:44:00,
2013-07-04 07:49:00,65.9,61.6,29.81,ESE,102,2.3,2.3,86,0.00,BKN,,0.00,134.0,WeatherDisplay:10.37,2013-07-04 14:49:00,
2013-07-04 07:54:00,66.1,61.8,29.81,ESE,102,2.3,2.3,86,0.00,BKN,,0.00,171.0,WeatherDisplay:10.37,2013-07-04 14:54:00,
2013-07-04 07:59:00,66.3,62.0,29.81,ESE,118,4.0,4.0,86,0.00,BKN,,0.00,186.0,WeatherDisplay:10.37,2013-07-04 14:59:00,
2013-07-04 08:04:00,66.4,61.8,29.81,ESE,121,2.3,2.3,85,0.00,BKN,,0.00,200.0,WeatherDisplay:10.37,2013-07-04 15:04:00,
2013-07-04 08:09:00,66.7,62.0,29.82,ESE,122,3.0,3.0,85,0.00,BKN,,0.00,169.0,WeatherDisplay:10.37,2013-07-04 15:09:00,
2013-07-04 08:14:00,66.9,61.9,29.81,SE,140,3.5,3.5,84,0.00,BKN,,0.00,211.0,WeatherDisplay:10.37,2013-07-04 15:14:00,
2013-07-04 08:19:00,66.9,61.9,29.82,SSE,148,3.5,3.5,84,0.00,SCT,,0.00,285.0,WeatherDisplay:10.37,2013-07-04 15:19:00,
2013-07-04 08:24:00,67.0,62.0,29.81,SSW,200,5.8,5.8,84,0.00,FEW,,0.00,367.0,WeatherDisplay:10.37,2013-07-04 15:24:00,
2013-07-04 08:29:00,67.3,62.0,29.81,SE,143,5.8,5.8,83,0.00,SCT,,0.00,330.0,WeatherDisplay:10.37,2013-07-04 15:29:00,
2013-07-04 08:34:00,67.5,62.2,29.82,South,178,4.6,4.6,83,0.00,FEW,,0.00,392.0,WeatherDisplay:10.37,2013-07-04 15:34:00,
2013-07-04 08:39:00,67.8,62.1,29.82,South,186,3.5,3.5,82,0.00,FEW,,0.00,397.0,WeatherDisplay:10.37,2013-07-04 15:39:00,
2013-07-04 08:44:00,68.2,62.1,29.82,South,184,5.0,5.0,81,0.00,FEW,,0.00,411.0,WeatherDisplay:10.37,2013-07-04 15:44:00,
2013-07-04 08:49:00,68.3,62.2,29.82,South,181,4.6,4.6,81,0.00,SCT,,0.00,422.0,WeatherDisplay:10.37,2013-07-04 15:49:00,
2013-07-04 08:54:00,68.6,62.2,29.82,SSW,194,5.0,5.0,80,0.00,SCT,,0.00,441.0,WeatherDisplay:10.37,2013-07-04 15:54:00,
2013-07-04 08:59:00,68.9,62.5,29.82,South,175,5.0,5.0,80,0.00,FEW,,0.00,454.0,WeatherDisplay:10.37,2013-07-04 15:59:00,
2013-07-04 09:04:00,69.0,62.2,29.82,South,175,3.5,3.5,79,0.00,FEW,,0.00,464.0,WeatherDisplay:10.37,2013-07-04 16:04:00,
2013-07-04 09:09:00,69.4,62.6,29.82,South,175,3.0,3.0,79,0.00,FEW,,0.00,480.0,WeatherDisplay:10.37,2013-07-04 16:09:00,
2013-07-04 09:14:00,69.7,62.5,29.82,South,183,4.6,4.6,78,0.00,FEW,,0.00,496.0,WeatherDisplay:10.37,2013-07-04 16:14:00,
2013-07-04 09:19:00,70.2,62.6,29.82,WSW,247,3.5,3.5,77,0.00,FEW,,0.00,508.0,WeatherDisplay:10.37,2013-07-04 16:19:00,
2013-07-04 09:24:00,70.9,63.3,29.82,South,185,5.0,5.0,77,0.00,SCT,,0.00,524.0,WeatherDisplay:10.37,2013-07-04 16:24:00,
2013-07-04 09:29:00,71.1,62.8,29.82,South,179,4.0,4.0,75,0.00,FEW,,0.00,534.0,WeatherDisplay:10.37,2013-07-04 16:29:00,
2013-07-04 09:34:00,71.0,62.7,29.82,South,179,4.0,4.0,75,0.00,SCT,,0.00,543.0,WeatherDisplay:10.37,2013-07-04 16:34:00,
2013-07-04 09:39:00,71.2,62.9,29.82,SSE,153,6.0,6.0,75,0.00,FEW,,0.00,563.0,WeatherDisplay:10.37,2013-07-04 16:39:00,
2013-07-04 09:44:00,71.6,63.3,29.82,South,184,4.6,4.6,75,0.00,FEW,,0.00,578.0,WeatherDisplay:10.37,2013-07-04 16:44:00,
2013-07-04 09:49:00,71.8,63.1,29.82,South,169,5.8,5.8,74,0.00,FEW,,0.00,589.0,WeatherDisplay:10.37,2013-07-04 16:49:00,
2013-07-04 09:54:00,71.7,63.0,29.82,South,189,5.0,5.0,74,0.00,FEW,,0.00,601.0,WeatherDisplay:10.37,2013-07-04 16:54:00,
2013-07-04 09:59:00,72.0,63.3,29.82,South,191,2.3,2.3,74,0.00,SCT,,0.00,610.0,WeatherDisplay:10.37,2013-07-04 16:59:00,
2013-07-04 10:04:00,72.5,63.0,29.81,SSE,153,4.6,4.6,72,0.00,SCT,,0.00,624.0,WeatherDisplay:10.37,2013-07-04 17:04:00,
2013-07-04 10:09:00,73.1,63.1,29.81,SE,124,3.0,3.0,71,0.00,SCT,,0.00,635.0,WeatherDisplay:10.37,2013-07-04 17:09:00,
2013-07-04 10:14:00,73.5,63.5,29.81,South,190,4.6,4.6,71,0.00,SCT,,0.00,649.0,WeatherDisplay:10.37,2013-07-04 17:14:00,
2013-07-04 10:19:00,73.3,62.9,29.81,South,175,5.8,5.8,70,0.00,SCT,,0.00,661.0,WeatherDisplay:10.37,2013-07-04 17:19:00,
2013-07-04 10:24:00,73.5,63.5,29.81,SSW,200,2.3,2.3,71,0.00,SCT,,0.00,673.0,WeatherDisplay:10.37,2013-07-04 17:24:00,
2013-07-04 10:29:00,74.0,63.2,29.81,SSW,202,6.9,6.9,69,0.00,SCT,,0.00,680.0,WeatherDisplay:10.37,2013-07-04 17:29:00,
2013-07-04 10:34:00,74.3,63.5,29.81,SSE,154,3.5,3.5,69,0.00,SCT,,0.00,693.0,WeatherDisplay:10.37,2013-07-04 17:34:00,
2013-07-04 10:39:00,74.7,63.4,29.81,SE,126,4.0,4.0,68,0.00,SCT,,0.00,701.0,WeatherDisplay:10.37,2013-07-04 17:39:00,
2013-07-04 10:44:00,74.8,63.1,29.81,SSW,209,6.0,6.0,67,0.00,SCT,,0.00,712.0,WeatherDisplay:10.37,2013-07-04 17:44:00,
2013-07-04 10:49:00,74.6,63.3,29.81,WSW,240,3.5,3.5,68,0.00,SCT,,0.00,719.0,WeatherDisplay:10.37,2013-07-04 17:49:00,
2013-07-04 10:54:00,74.9,63.2,29.81,SSW,197,5.8,5.8,67,0.00,SCT,,0.00,729.0,WeatherDisplay:10.37,2013-07-04 17:54:00,
2013-07-04 10:59:00,75.4,63.2,29.81,SSE,156,6.9,6.9,66,0.00,SCT,,0.00,742.0,WeatherDisplay:10.37,2013-07-04 17:59:00,
2013-07-04 11:04:00,75.8,63.2,29.81,East,89,5.8,5.8,65,0.00,SCT,,0.00,749.0,WeatherDisplay:10.37,2013-07-04 18:04:00,
2013-07-04 11:09:00,76.3,63.7,29.81,SSE,161,3.5,3.5,65,0.00,SCT,,0.00,754.0,WeatherDisplay:10.37,2013-07-04 18:09:00,
2013-07-04 11:14:00,76.7,63.6,29.81,SSW,200,6.0,6.0,64,0.00,SCT,,0.00,766.0,WeatherDisplay:10.37,2013-07-04 18:14:00,
2013-07-04 11:19:00,76.6,63.1,29.81,SE,142,3.5,3.5,63,0.00,SCT,,0.00,773.0,WeatherDisplay:10.37,2013-07-04 18:19:00,
2013-07-04 11:24:00,76.7,63.6,29.81,SSW,199,6.0,6.0,64,0.00,SCT,,0.00,779.0,WeatherDisplay:10.37,2013-07-04 18:24:00,
2013-07-04 11:29:00,77.3,63.7,29.81,SSW,205,4.6,4.6,63,0.00,SCT,,0.00,788.0,WeatherDisplay:10.37,2013-07-04 18:29:00,
2013-07-04 11:34:00,77.8,63.7,29.81,WSW,244,3.5,3.5,62,0.00,SCT,,0.00,795.0,WeatherDisplay:10.37,2013-07-04 18:34:00,
2013-07-04 11:39:00,78.2,64.1,29.81,South,175,6.0,6.0,62,0.00,SCT,,0.00,800.0,WeatherDisplay:10.37,2013-07-04 18:39:00,
2013-07-04 11:44:00,78.3,63.7,29.81,SSW,205,6.0,6.0,61,0.00,SCT,,0.00,807.0,WeatherDisplay:10.37,2013-07-04 18:44:00,
2013-07-04 11:49:00,78.3,63.3,29.80,South,183,3.5,3.5,60,0.00,SCT,,0.00,810.0,WeatherDisplay:10.37,2013-07-04 18:49:00,
2013-07-04 11:54:00,78.6,63.6,29.80,SSE,163,6.9,6.9,60,0.00,SCT,,0.00,819.0,WeatherDisplay:10.37,2013-07-04 18:54:00,
2013-07-04 11:59:00,78.7,63.6,29.80,South,184,4.6,4.6,60,0.00,SCT,,0.00,821.0,WeatherDisplay:10.37,2013-07-04 18:59:00,
2013-07-04 12:04:00,78.5,63.0,29.81,SSW,197,3.5,3.5,59,0.00,SCT,,0.00,824.0,WeatherDisplay:10.37,2013-07-04 19:04:00,
2013-07-04 12:09:00,79.2,63.6,29.80,SSW,193,8.0,8.0,59,0.00,SCT,,0.00,826.0,WeatherDisplay:10.37,2013-07-04 19:09:00,
2013-07-04 12:14:00,79.3,63.2,29.80,SSE,149,9.2,9.2,58,0.00,SCT,,0.00,831.0,WeatherDisplay:10.37,2013-07-04 19:14:00,
2013-07-04 12:19:00,79.3,63.7,29.80,SSE,150,4.6,4.6,59,0.00,SCT,,0.00,831.0,WeatherDisplay:10.37,2013-07-04 19:19:00,
2013-07-04 12:24:00,79.9,63.3,29.80,SSE,162,10.4,10.4,57,0.00,SCT,,0.00,833.0,WeatherDisplay:10.37,2013-07-04 19:24:00,
2013-07-04 12:29:00,79.8,63.7,29.80,SW,225,9.0,9.0,58,0.00,SCT,,0.00,837.0,WeatherDisplay:10.37,2013-07-04 19:29:00,
2013-07-04 12:34:00,80.2,63.6,29.80,South,174,7.0,7.0,57,0.00,SCT,,0.00,837.0,WeatherDisplay:10.37,2013-07-04 19:34:00,
2013-07-04 12:39:00,80.5,63.4,29.80,SSE,157,5.8,5.8,56,0.00,SCT,,0.00,840.0,WeatherDisplay:10.37,2013-07-04 19:39:00,
2013-07-04 12:44:00,80.3,63.7,29.79,SW,227,5.8,5.8,57,0.00,SCT,,0.00,838.0,WeatherDisplay:10.37,2013-07-04 19:44:00,
2013-07-04 12:49:00,80.6,64.0,29.79,SW,222,6.9,6.9,57,0.00,SCT,,0.00,842.0,WeatherDisplay:10.37,2013-07-04 19:49:00,
2013-07-04 12:54:00,80.1,63.5,29.79,WNW,303,6.9,6.9,57,0.00,SCT,,0.00,842.0,WeatherDisplay:10.37,2013-07-04 19:54:00,
2013-07-04 12:59:00,80.7,63.5,29.79,SSW,205,9.0,9.0,56,0.00,SCT,,0.00,840.0,WeatherDisplay:10.37,2013-07-04 19:59:00,
2013-07-04 13:04:00,80.7,63.5,29.79,SSW,213,7.0,7.0,56,0.00,SCT,,0.00,842.0,WeatherDisplay:10.37,2013-07-04 20:04:00,
2013-07-04 13:09:00,80.8,63.6,29.78,WSW,256,8.1,8.1,56,0.00,SCT,,0.00,838.0,WeatherDisplay:10.37,2013-07-04 20:09:00,
2013-07-04 13:14:00,80.5,63.9,29.79,SSE,167,8.1,8.1,57,0.00,SCT,,0.00,838.0,WeatherDisplay:10.37,2013-07-04 20:14:00,
2013-07-04 13:19:00,80.8,63.6,29.78,South,175,10.0,10.0,56,0.00,SCT,,0.00,837.0,WeatherDisplay:10.37,2013-07-04 20:19:00,
2013-07-04 13:24:00,80.6,63.5,29.78,SSE,153,9.2,9.2,56,0.00,SCT,,0.00,837.0,WeatherDisplay:10.37,2013-07-04 20:24:00,
2013-07-04 13:29:00,80.7,63.5,29.78,SSW,205,8.1,8.1,56,0.00,SCT,,0.00,835.0,WeatherDisplay:10.37,2013-07-04 20:29:00,
2013-07-04 13:34:00,80.5,63.4,29.78,SSE,162,9.2,9.2,56,0.00,SCT,,0.00,835.0,WeatherDisplay:10.37,2013-07-04 20:34:00,
2013-07-04 13:39:00,80.5,62.8,29.78,SSW,207,10.0,10.0,55,0.00,SCT,,0.00,835.0,WeatherDisplay:10.37,2013-07-04 20:39:00,
2013-07-04 13:44:00,80.7,63.5,29.77,SSW,194,6.9,6.9,56,0.00,SCT,,0.00,824.0,WeatherDisplay:10.37,2013-07-04 20:44:00,
2013-07-04 13:49:00,81.1,63.4,29.77,SE,143,8.1,8.1,55,0.00,SCT,,0.00,821.0,WeatherDisplay:10.37,2013-07-04 20:49:00,
2013-07-04 13:54:00,81.1,63.4,29.77,SSW,199,7.0,7.0,55,0.00,SCT,,0.00,814.0,WeatherDisplay:10.37,2013-07-04 20:54:00,
2013-07-04 13:59:00,81.0,63.3,29.77,SSE,166,7.0,7.0,55,0.00,SCT,,0.00,636.0,WeatherDisplay:10.37,2013-07-04 20:59:00,
2013-07-04 14:04:00,81.1,63.4,29.77,SSE,155,8.1,8.1,55,0.00,SCT,,0.00,751.0,WeatherDisplay:10.37,2013-07-04 21:04:00,
2013-07-04 14:09:00,81.1,63.4,29.77,South,186,8.1,8.1,55,0.00,SCT,,0.00,800.0,WeatherDisplay:10.37,2013-07-04 21:09:00,
2013-07-04 14:14:00,81.6,63.3,29.77,South,190,8.1,8.1,54,0.00,SCT,,0.00,800.0,WeatherDisplay:10.37,2013-07-04 21:14:00,
2013-07-04 14:19:00,81.6,63.3,29.76,South,178,9.0,9.0,54,0.00,SCT,,0.00,795.0,WeatherDisplay:10.37,2013-07-04 21:19:00,
2013-07-04 14:24:00,81.6,63.3,29.76,South,173,8.1,8.1,54,0.00,SCT,,0.00,795.0,WeatherDisplay:10.37,2013-07-04 21:24:00,
2013-07-04 14:29:00,81.5,63.3,29.76,SSE,153,4.0,4.0,54,0.00,SCT,,0.00,780.0,WeatherDisplay:10.37,2013-07-04 21:29:00,
2013-07-04 14:34:00,81.9,62.5,29.76,SSW,209,5.8,5.8,52,0.00,SCT,,0.00,775.0,WeatherDisplay:10.37,2013-07-04 21:34:00,
2013-07-04 14:39:00,82.2,63.4,29.76,SSW,192,7.0,7.0,53,0.00,SCT,,0.00,768.0,WeatherDisplay:10.37,2013-07-04 21:39:00,
2013-07-04 14:44:00,82.6,63.7,29.76,SSW,213,4.6,4.6,53,0.00,SCT,,0.00,759.0,WeatherDisplay:10.37,2013-07-04 21:44:00,
2013-07-04 14:45:00,82.6,63.7,29.76,SSW,213,4.6,4.6,53,0.00,SCT,,0.00,759.0,WeatherDisplay:10.37,2013-07-04 21:45:00,
2013-07-04 14:50:00,83.1,63.1,29.76,SSW,201,6.9,6.9,51,0.00,SCT,,0.00,752.0,WeatherDisplay:10.37,2013-07-04 21:50:00,
2013-07-04 14:55:00,83.3,63.3,29.76,SW,222,8.1,8.1,51,0.00,SCT,,0.00,742.0,WeatherDisplay:10.37,2013-07-04 21:55:00,
2013-07-04 15:00:00,82.7,63.3,29.75,SSE,163,10.0,10.0,52,0.00,SCT,,0.00,731.0,WeatherDisplay:10.37,2013-07-04 22:00:00,
2013-07-04 15:05:00,82.5,63.6,29.75,South,186,6.9,6.9,53,0.00,SCT,,0.00,722.0,WeatherDisplay:10.37,2013-07-04 22:05:00,
2013-07-04 15:10:00,82.4,63.0,29.75,West,277,9.2,9.2,52,0.00,SCT,,0.00,712.0,WeatherDisplay:10.37,2013-07-04 22:10:00,
2013-07-04 15:15:00,82.8,63.9,29.75,SE,146,9.2,9.2,53,0.00,FEW,,0.00,701.0,WeatherDisplay:10.37,2013-07-04 22:15:00,
2013-07-04 15:20:00,82.7,63.8,29.75,South,186,8.1,8.1,53,0.00,SCT,,0.00,693.0,WeatherDisplay:10.37,2013-07-04 22:20:00,
2013-07-04 15:25:00,82.8,63.9,29.74,South,171,7.0,7.0,53,0.00,SCT,,0.00,682.0,WeatherDisplay:10.37,2013-07-04 22:25:00,
2013-07-04 15:30:00,83.1,64.2,29.75,South,191,7.0,7.0,53,0.00,FEW,,0.00,673.0,WeatherDisplay:10.37,2013-07-04 22:30:00,
2013-07-04 15:35:00,83.0,64.1,29.74,SSW,201,11.5,11.5,53,0.00,FEW,,0.00,663.0,WeatherDisplay:10.37,2013-07-04 22:35:00,
2013-07-04 15:40:00,82.9,64.0,29.74,South,180,6.9,6.9,53,0.00,FEW,,0.00,652.0,WeatherDisplay:10.37,2013-07-04 22:40:00,
2013-07-04 15:45:00,82.8,63.9,29.74,SSW,201,11.5,11.5,53,0.00,FEW,,0.00,642.0,WeatherDisplay:10.37,2013-07-04 22:45:00,
2013-07-04 15:50:00,82.9,64.0,29.74,South,185,6.9,6.9,53,0.00,FEW,,0.00,633.0,WeatherDisplay:10.37,2013-07-04 22:50:00,
2013-07-04 15:55:00,83.2,64.3,29.74,SSE,148,10.4,10.4,53,0.00,FEW,,0.00,622.0,WeatherDisplay:10.37,2013-07-04 22:55:00,
2013-07-04 16:00:00,83.5,64.0,29.74,SSE,167,6.9,6.9,52,0.00,FEW,,0.00,606.0,WeatherDisplay:10.37,2013-07-04 23:00:00,
2013-07-04 16:05:00,83.5,64.0,29.73,SSW,201,6.9,6.9,52,0.00,FEW,,0.00,596.0,WeatherDisplay:10.37,2013-07-04 23:05:00,
2013-07-04 16:10:00,84.1,64.0,29.73,SSE,167,6.9,6.9,51,0.00,FEW,,0.00,585.0,WeatherDisplay:10.37,2013-07-04 23:10:00,
2013-07-04 16:15:00,84.4,64.3,29.73,SE,135,8.1,8.1,51,0.00,FEW,,0.00,571.0,WeatherDisplay:10.37,2013-07-04 23:15:00,
2013-07-04 16:20:00,84.2,63.5,29.73,SSW,205,9.2,9.2,50,0.00,FEW,,0.00,557.0,WeatherDisplay:10.37,2013-07-04 23:20:00,
2013-07-04 16:25:00,83.9,63.3,29.73,South,188,10.4,10.4,50,0.00,FEW,,0.00,545.0,WeatherDisplay:10.37,2013-07-04 23:25:00,
2013-07-04 16:30:00,83.8,63.2,29.73,SSE,153,9.2,9.2,50,0.00,FEW,,0.00,531.0,WeatherDisplay:10.37,2013-07-04 23:30:00,
2013-07-04 16:35:00,83.4,63.4,29.73,South,171,7.0,7.0,51,0.00,FEW,,0.00,519.0,WeatherDisplay:10.37,2013-07-04 23:35:00,
2013-07-04 16:40:00,83.4,62.8,29.73,South,186,9.2,9.2,50,0.00,FEW,,0.00,504.0,WeatherDisplay:10.37,2013-07-04 23:40:00,
2013-07-04 16:45:00,83.2,63.2,29.73,SSE,166,6.9,6.9,51,0.00,FEW,,0.00,492.0,WeatherDisplay:10.37,2013-07-04 23:45:00,
2013-07-04 16:50:00,82.9,62.4,29.73,South,170,8.1,8.1,50,0.00,FEW,,0.00,478.0,WeatherDisplay:10.37,2013-07-04 23:50:00,
2013-07-04 16:55:00,82.7,62.7,29.73,SSE,167,7.0,7.0,51,0.00,FEW,,0.00,464.0,WeatherDisplay:10.37,2013-07-04 23:55:00,
2013-07-04 17:00:00,82.6,62.6,29.73,SSE,155,8.1,8.1,51,0.00,FEW,,0.00,452.0,WeatherDisplay:10.37,2013-07-05 00:00:00,
2013-07-04 17:05:00,82.3,62.9,29.73,SSW,206,6.0,6.0,52,0.00,FEW,,0.00,438.0,WeatherDisplay:10.37,2013-07-05 00:05:00,
2013-07-04 17:10:00,82.0,62.6,29.73,SSE,161,11.5,11.5,52,0.00,FEW,,0.00,424.0,WeatherDisplay:10.37,2013-07-05 00:10:00,
2013-07-04 17:15:00,81.6,62.8,29.73,SE,126,11.0,11.0,53,0.00,FEW,,0.00,410.0,WeatherDisplay:10.37,2013-07-05 00:15:00,
2013-07-04 17:20:00,80.9,62.7,29.73,SSE,154,12.0,12.0,54,0.00,FEW,,0.00,394.0,WeatherDisplay:10.37,2013-07-05 00:20:00,
2013-07-04 17:25:00,80.5,62.8,29.73,SSE,160,9.2,9.2,55,0.00,FEW,,0.00,378.0,WeatherDisplay:10.37,2013-07-05 00:25:00,
2013-07-04 17:30:00,80.3,62.7,29.73,SE,133,9.2,9.2,55,0.00,FEW,,0.00,362.0,WeatherDisplay:10.37,2013-07-05 00:30:00,
2013-07-04 17:35:00,80.1,62.5,29.73,SSE,163,11.5,11.5,55,0.00,FEW,,0.00,350.0,WeatherDisplay:10.37,2013-07-05 00:35:00,
2013-07-04 17:40:00,80.0,62.9,29.73,South,187,9.2,9.2,56,0.00,FEW,,0.00,336.0,WeatherDisplay:10.37,2013-07-05 00:40:00,
2013-07-04 17:45:00,79.6,62.5,29.73,South,184,9.2,9.2,56,0.00,FEW,,0.00,320.0,WeatherDisplay:10.37,2013-07-05 00:45:00,
2013-07-04 17:50:00,79.0,62.5,29.73,SE,145,10.4,10.4,57,0.00,FEW,,0.00,306.0,WeatherDisplay:10.37,2013-07-05 00:50:00,
2013-07-04 17:55:00,78.7,62.2,29.73,SSE,153,8.1,8.1,57,0.00,FEW,,0.00,292.0,WeatherDisplay:10.37,2013-07-05 00:55:00,
2013-07-04 18:00:00,78.3,62.3,29.73,SE,124,10.4,10.4,58,0.00,FEW,,0.00,279.0,WeatherDisplay:10.37,2013-07-05 01:00:00,
2013-07-04 18:05:00,77.6,62.1,29.74,South,188,9.2,9.2,59,0.00,FEW,,0.00,262.0,WeatherDisplay:10.37,2013-07-05 01:05:00,
2013-07-04 18:10:00,77.5,62.0,29.74,SSE,151,11.0,11.0,59,0.00,FEW,,0.00,250.0,WeatherDisplay:10.37,2013-07-05 01:10:00,
2013-07-04 18:15:00,77.3,62.3,29.74,SSE,159,10.0,10.0,60,0.00,FEW,,0.00,236.0,WeatherDisplay:10.37,2013-07-05 01:15:00,
2013-07-04 18:20:00,76.7,61.8,29.74,SSE,167,10.4,10.4,60,0.00,FEW,,0.00,221.0,WeatherDisplay:10.37,2013-07-05 01:20:00,
2013-07-04 18:25:00,76.1,61.7,29.74,South,184,10.4,10.4,61,0.00,FEW,,0.00,209.0,WeatherDisplay:10.37,2013-07-05 01:25:00,
2013-07-04 18:30:00,76.0,62.0,29.74,SSE,167,11.5,11.5,62,0.00,FEW,,0.00,195.0,WeatherDisplay:10.37,2013-07-05 01:30:00,
2013-07-04 18:35:00,75.7,61.8,29.74,SSE,152,9.2,9.2,62,0.00,FEW,,0.00,183.0,WeatherDisplay:10.37,2013-07-05 01:35:00,
2013-07-04 18:40:00,75.4,61.9,29.75,SSE,161,11.5,11.5,63,0.00,FEW,,0.00,167.0,WeatherDisplay:10.37,2013-07-05 01:40:00,
2013-07-04 18:45:00,75.3,62.3,29.75,South,178,10.4,10.4,64,0.00,FEW,,0.00,153.0,WeatherDisplay:10.37,2013-07-05 01:45:00,
2013-07-04 18:50:00,75.1,62.1,29.75,SSE,149,9.2,9.2,64,0.00,SCT,,0.00,135.0,WeatherDisplay:10.37,2013-07-05 01:50:00,
2013-07-04 18:55:00,74.9,62.3,29.75,SSE,152,11.5,11.5,65,0.00,SCT,,0.00,116.0,WeatherDisplay:10.37,2013-07-05 01:55:00,
2013-07-04 19:00:00,74.5,62.0,29.75,SE,143,8.1,8.1,65,0.00,SCT,,0.00,100.0,WeatherDisplay:10.37,2013-07-05 02:00:00,
2013-07-04 19:05:00,74.0,61.9,29.75,SSE,161,9.2,9.2,66,0.00,SCT,,0.00,86.0,WeatherDisplay:10.37,2013-07-05 02:05:00,
2013-07-04 19:10:00,73.5,61.9,29.76,SSE,163,7.0,7.0,67,0.00,SCT,,0.00,72.0,WeatherDisplay:10.37,2013-07-05 02:10:00,
2013-07-04 19:15:00,72.9,62.1,29.76,SSE,160,8.1,8.1,69,0.00,BKN,,0.00,58.0,WeatherDisplay:10.37,2013-07-05 02:15:00,
2013-07-04 19:20:00,72.4,62.1,29.76,South,188,9.2,9.2,70,0.00,BKN,,0.00,47.0,WeatherDisplay:10.37,2013-07-05 02:20:00,
2013-07-04 19:25:00,72.2,62.3,29.76,SSE,153,6.0,6.0,71,0.00,BKN,,0.00,40.0,WeatherDisplay:10.37,2013-07-05 02:25:00,
2013-07-04 19:30:00,71.9,62.0,29.76,South,188,8.1,8.1,71,0.00,BKN,,0.00,33.0,WeatherDisplay:10.37,2013-07-05 02:30:00,
2013-07-04 19:35:00,71.4,61.9,29.76,SSW,198,11.5,11.5,72,0.00,BKN,,0.00,26.0,WeatherDisplay:10.37,2013-07-05 02:35:00,
2013-07-04 19:40:00,71.0,61.9,29.77,SSE,161,9.2,9.2,73,0.00,BKN,,0.00,19.0,WeatherDisplay:10.37,2013-07-05 02:40:00,
2013-07-04 19:45:00,70.7,62.0,29.77,SSE,163,8.1,8.1,74,0.00,BKN,,0.00,16.0,WeatherDisplay:10.37,2013-07-05 02:45:00,
2013-07-04 19:50:00,70.4,61.7,29.77,SE,146,9.2,9.2,74,0.00,BKN,,0.00,12.0,WeatherDisplay:10.37,2013-07-05 02:50:00,
2013-07-04 19:55:00,70.1,61.8,29.78,SSE,162,9.2,9.2,75,0.00,BKN,,0.00,11.0,WeatherDisplay:10.37,2013-07-05 02:55:00,
2013-07-04 20:00:00,69.8,61.9,29.78,SE,142,9.0,9.0,76,0.00,BKN,,0.00,7.0,WeatherDisplay:10.37,2013-07-05 03:00:00,
2013-07-04 20:05:00,69.6,61.7,29.78,South,171,8.1,8.1,76,0.00,SCT,,0.00,5.0,WeatherDisplay:10.37,2013-07-05 03:05:00,
2013-07-04 20:10:00,69.3,61.8,29.78,SE,139,8.1,8.1,77,0.00,CLR,,0.00,0.0,WeatherDisplay:10.37,2013-07-05 03:10:00,
2013-07-04 20:15:00,69.1,61.6,29.79,SSE,156,9.2,9.2,77,0.00,CLR,,0.00,0.0,WeatherDisplay:10.37,2013-07-05 03:15:00,
2013-07-04 20:20:00,68.8,61.3,29.79,South,169,9.2,9.2,77,0.00,CLR,,0.00,0.0,WeatherDisplay:10.37,2013-07-05 03:20:00,
2013-07-04 20:25:00,68.4,61.3,29.79,SSE,149,9.2,9.2,78,0.00,CLR,,0.00,0.0,WeatherDisplay:10.37,2013-07-05 03:25:00,
2013-07-04 20:30:00,68.0,61.2,29.79,SSE,155,5.8,5.8,79,0.00,CLR,,0.00,0.0,WeatherDisplay:10.37,2013-07-05 03:30:00,
2013-07-04 20:35:00,67.9,61.5,29.79,SSE,168,8.1,8.1,80,0.00,CLR,,0.00,0.0,WeatherDisplay:10.37,2013-07-05 03:35:00,
2013-07-04 20:40:00,67.8,61.4,29.80,SSE,165,7.0,7.0,80,0.00,CLR,,0.00,0.0,WeatherDisplay:10.37,2013-07-05 03:40:00,
2013-07-04 20:45:00,67.6,61.2,29.80,South,169,9.2,9.2,80,0.00,CLR,,0.00,0.0,WeatherDisplay:10.37,2013-07-05 03:45:00,
2013-07-04 20:50:00,67.4,61.4,29.80,SSE,153,6.9,6.9,81,0.00,CLR,,0.00,0.0,WeatherDisplay:10.37,2013-07-05 03:50:00,
2013-07-04 20:55:00,67.2,61.2,29.80,South,169,9.2,9.2,81,0.00,CLR,,0.00,0.0,WeatherDisplay:10.37,2013-07-05 03:55:00,
2013-07-04 21:00:00,67.0,61.0,29.80,South,190,8.1,8.1,81,0.00,CLR,,0.00,0.0,WeatherDisplay:10.37,2013-07-05 04:00:00,
2013-07-04 21:01:00,67.0,61.0,29.80,South,190,8.1,8.1,81,0.00,CLR,,0.00,0.0,WeatherDisplay:10.37,2013-07-05 04:01:00,
2013-07-04 21:02:00,67.0,61.3,29.81,SSE,149,7.0,7.0,82,0.00,CLR,,0.00,0.0,WeatherDisplay:10.37,2013-07-05 04:02:00,
2013-07-04 21:07:00,66.8,61.1,29.81,SSE,148,5.8,5.8,82,0.00,CLR,,0.00,0.0,WeatherDisplay:10.37,2013-07-05 04:07:00,
2013-07-04 21:12:00,66.8,61.1,29.81,SSE,160,5.8,5.8,82,0.00,CLR,,0.00,0.0,WeatherDisplay:10.37,2013-07-05 04:12:00,
2013-07-04 21:17:00,66.7,61.0,29.81,SSE,158,6.9,6.9,82,0.00,CLR,,0.00,0.0,WeatherDisplay:10.37,2013-07-05 04:17:00,
2013-07-04 21:22:00,66.7,61.4,29.81,South,170,9.2,9.2,83,0.00,CLR,,0.00,0.0,WeatherDisplay:10.37,2013-07-05 04:22:00,
2013-07-04 21:27:00,66.6,61.3,29.81,SSE,157,6.0,6.0,83,0.00,CLR,,0.00,0.0,WeatherDisplay:10.37,2013-07-05 04:27:00,
2013-07-04 21:32:00,66.5,61.2,29.81,South,180,5.0,5.0,83,0.00,CLR,,0.00,0.0,WeatherDisplay:10.37,2013-07-05 04:32:00,
2013-07-04 21:37:00,66.4,61.1,29.81,SSE,165,5.8,5.8,83,0.00,CLR,,0.00,0.0,WeatherDisplay:10.37,2013-07-05 04:37:00,
2013-07-04 21:42:00,66.4,61.1,29.81,South,181,4.6,4.6,83,0.00,CLR,,0.00,0.0,WeatherDisplay:10.37,2013-07-05 04:42:00,
2013-07-04 21:47:00,66.4,61.1,29.82,SSE,161,5.0,5.0,83,0.00,CLR,,0.00,0.0,WeatherDisplay:10.37,2013-07-05 04:47:00,
2013-07-04 21:52:00,66.3,61.0,29.82,SSE,163,4.0,4.0,83,0.00,CLR,,0.00,0.0,WeatherDisplay:10.37,2013-07-05 04:52:00,
2013-07-04 21:57:00,66.2,60.9,29.82,SE,136,4.6,4.6,83,0.00,CLR,,0.00,0.0,WeatherDisplay:10.37,2013-07-05 04:57:00,
2013-07-04 22:02:00,66.1,61.1,29.82,SSE,155,3.5,3.5,84,0.00,CLR,,0.00,0.0,WeatherDisplay:10.37,2013-07-05 05:02:00,
2013-07-04 22:07:00,66.0,61.0,29.82,SE,145,3.5,3.5,84,0.00,CLR,,0.00,0.0,WeatherDisplay:10.37,2013-07-05 05:07:00,
2013-07-04 22:12:00,66.0,61.0,29.82,SSE,158,3.5,3.5,84,0.00,CLR,,0.00,0.0,WeatherDisplay:10.37,2013-07-05 05:12:00,
2013-07-04 22:17:00,66.0,61.0,29.82,South,170,4.0,4.0,84,0.00,CLR,,0.00,0.0,WeatherDisplay:10.37,2013-07-05 05:17:00,
2013-07-04 22:22:00,66.0,61.0,29.82,SSE,164,3.5,3.5,84,0.00,CLR,,0.00,0.0,WeatherDisplay:10.37,2013-07-05 05:22:00,
2013-07-04 22:27:00,66.0,61.0,29.82,South,173,3.5,3.5,84,0.00,CLR,,0.00,0.0,WeatherDisplay:10.37,2013-07-05 05:27:00,
2013-07-04 22:32:00,66.0,61.0,29.82,SSE,147,3.5,3.5,84,0.00,CLR,,0.00,0.0,WeatherDisplay:10.37,2013-07-05 05:32:00,
2013-07-04 22:37:00,65.9,60.9,29.82,SSE,167,3.5,3.5,84,0.00,CLR,,0.00,0.0,WeatherDisplay:10.37,2013-07-05 05:37:00,
2013-07-04 22:42:00,65.8,60.8,29.82,South,182,4.0,4.0,84,0.00,CLR,,0.00,0.0,WeatherDisplay:10.37,2013-07-05 05:42:00,
2013-07-04 22:47:00,65.8,60.8,29.82,SSW,207,4.0,4.0,84,0.00,CLR,,0.00,0.0,WeatherDisplay:10.37,2013-07-05 05:47:00,
2013-07-04 22:52:00,65.8,60.8,29.82,South,171,4.0,4.0,84,0.00,CLR,,0.00,0.0,WeatherDisplay:10.37,2013-07-05 05:52:00,
2013-07-04 22:57:00,65.7,60.7,29.82,SSE,162,5.0,5.0,84,0.00,CLR,,0.00,0.0,WeatherDisplay:10.37,2013-07-05 05:57:00,
2013-07-04 23:02:00,65.6,60.6,29.82,South,171,4.0,4.0,84,0.00,CLR,,0.00,0.0,WeatherDisplay:10.37,2013-07-05 06:02:00,
2013-07-04 23:07:00,65.5,60.9,29.82,SSE,155,4.0,4.0,85,0.00,CLR,,0.00,0.0,WeatherDisplay:10.37,2013-07-05 06:07:00,
2013-07-04 23:12:00,65.5,60.9,29.82,SSE,153,3.5,3.5,85,0.00,CLR,,0.00,0.0,WeatherDisplay:10.37,2013-07-05 06:12:00,
2013-07-04 23:17:00,65.5,60.9,29.82,SSE,153,3.5,3.5,85,0.00,CLR,,0.00,0.0,WeatherDisplay:10.37,2013-07-05 06:17:00,
2013-07-04 23:22:00,65.5,60.9,29.82,SSE,163,5.0,5.0,85,0.00,CLR,,0.00,0.0,WeatherDisplay:10.37,2013-07-05 06:22:00,
2013-07-04 23:27:00,65.4,60.8,29.82,SSE,168,5.0,5.0,85,0.00,CLR,,0.00,0.0,WeatherDisplay:10.37,2013-07-05 06:27:00,
2013-07-04 23:32:00,65.3,60.7,29.82,SSE,162,4.6,4.6,85,0.00,CLR,,0.00,0.0,WeatherDisplay:10.37,2013-07-05 06:32:00,
2013-07-04 23:37:00,65.3,60.7,29.82,South,175,3.5,3.5,85,0.00,CLR,,0.00,0.0,WeatherDisplay:10.37,2013-07-05 06:37:00,
2013-07-04 23:42:00,65.3,60.7,29.82,South,173,3.5,3.5,85,0.00,CLR,,0.00,0.0,WeatherDisplay:10.37,2013-07-05 06:42:00,
2013-07-04 23:47:00,65.3,60.7,29.82,SSE,167,3.5,3.5,85,0.00,CLR,,0.00,0.0,WeatherDisplay:10.37,2013-07-05 06:47:00,
2013-07-04 23:52:00,65.5,60.9,29.82,SSW,197,5.0,5.0,85,0.00,CLR,,0.00,0.0,WeatherDisplay:10.37,2013-07-05 06:52:00,
2013-07-04 23:57:00,65.6,61.0,29.82,SE,144,4.6,4.6,85,0.00,CLR,,0.00,0.0,WeatherDisplay:10.37,2013-07-05 06:57:00,